createdAt,value
2022-07-27T00:00:34.029Z,947.81
2022-07-27T00:03:00.347Z,947.78
2022-07-27T00:05:26.728Z,947.76
2022-07-27T00:07:53.122Z,947.74
2022-07-27T00:10:19.487Z,947.82
2022-07-27T00:12:45.881Z,947.79
2022-07-27T00:15:12.248Z,947.77
2022-07-27T00:17:38.634Z,947.88
2022-07-27T00:20:05.111Z,947.87
2022-07-27T00:22:31.475Z,947.87
2022-07-27T00:24:57.843Z,947.83
2022-07-27T00:27:24.219Z,947.88
2022-07-27T00:29:50.609Z,947.95
2022-07-27T00:32:16.993Z,947.90
2022-07-27T00:34:43.352Z,947.99
2022-07-27T00:37:09.758Z,948.00
2022-07-27T00:39:36.115Z,948.12
2022-07-27T00:42:02.493Z,948.14
2022-07-27T00:44:28.861Z,948.22
2022-07-27T00:46:55.332Z,948.14
2022-07-27T00:49:21.769Z,948.14
2022-07-27T00:51:48.034Z,948.19
2022-07-27T00:54:14.437Z,948.21
2022-07-27T00:56:40.801Z,948.15
2022-07-27T00:59:07.192Z,948.15
2022-07-27T01:01:33.706Z,948.19
2022-07-27T01:03:59.926Z,948.19
2022-07-27T01:06:27.283Z,948.18
2022-07-27T01:08:52.681Z,948.11
2022-07-27T01:11:19.075Z,948.14
2022-07-27T01:13:45.450Z,948.13
2022-07-27T01:16:11.890Z,948.07
2022-07-27T01:18:38.209Z,948.14
2022-07-27T01:21:04.572Z,948.14
2022-07-27T01:23:30.971Z,948.20
2022-07-27T01:25:57.336Z,948.19
2022-07-27T01:28:23.718Z,948.18
2022-07-27T01:30:50.205Z,948.19
2022-07-27T01:33:16.505Z,948.29
2022-07-27T01:35:42.889Z,948.21
2022-07-27T01:38:09.266Z,948.28
2022-07-27T01:40:35.653Z,948.30
2022-07-27T01:43:02.030Z,948.26
2022-07-27T01:45:28.416Z,948.28
2022-07-27T01:47:54.799Z,948.29
2022-07-27T01:50:21.189Z,948.28
2022-07-27T01:52:47.589Z,948.23
2022-07-27T01:55:13.963Z,948.20
2022-07-27T01:57:40.346Z,948.33
2022-07-27T02:00:06.736Z,948.31
2022-07-27T02:02:33.162Z,948.32
2022-07-27T02:04:59.586Z,948.25
2022-07-27T02:07:25.908Z,948.32
2022-07-27T02:09:52.300Z,948.29
2022-07-27T02:12:18.665Z,948.32
2022-07-27T02:14:45.036Z,948.31
2022-07-27T02:17:11.400Z,948.29
2022-07-27T02:19:37.798Z,948.32
2022-07-27T02:22:04.194Z,948.34
2022-07-27T02:24:30.587Z,948.31
2022-07-27T02:26:56.966Z,948.41
2022-07-27T02:29:23.389Z,948.41
2022-07-27T02:31:49.771Z,948.40
2022-07-27T02:34:16.154Z,948.46
2022-07-27T02:36:42.570Z,948.46
2022-07-27T02:39:09.213Z,948.42
2022-07-27T02:41:35.325Z,948.41
2022-07-27T02:44:01.757Z,948.45
2022-07-27T02:46:28.203Z,948.54
2022-07-27T02:48:54.577Z,948.53
2022-07-27T02:51:20.898Z,948.55
2022-07-27T02:53:47.264Z,948.46
2022-07-27T02:56:13.625Z,948.48
2022-07-27T02:58:40.049Z,948.52
2022-07-27T03:01:06.967Z,948.55
2022-07-27T03:03:34.536Z,948.60
2022-07-27T03:05:59.167Z,948.62
2022-07-27T03:08:25.530Z,948.65
2022-07-27T03:10:51.921Z,948.73
2022-07-27T03:13:18.324Z,948.76
2022-07-27T03:15:44.758Z,948.74
2022-07-27T03:18:11.089Z,948.81
2022-07-27T03:20:37.459Z,948.78
2022-07-27T03:23:03.845Z,948.89
2022-07-27T03:25:30.235Z,948.78
2022-07-27T03:28:00.476Z,948.84
2022-07-27T03:30:22.983Z,948.79
2022-07-27T03:32:49.363Z,948.79
2022-07-27T03:35:15.733Z,948.78
2022-07-27T03:37:42.116Z,948.69
2022-07-27T03:40:08.496Z,948.70
2022-07-27T03:42:34.895Z,948.67
2022-07-27T03:45:01.276Z,948.73
2022-07-27T03:47:27.683Z,948.71
2022-07-27T03:49:54.080Z,948.75
2022-07-27T03:52:20.483Z,948.84
2022-07-27T03:54:46.843Z,948.80
2022-07-27T03:57:13.272Z,948.79
2022-07-27T03:59:39.627Z,948.84
2022-07-27T04:02:06.030Z,948.84
2022-07-27T04:04:32.384Z,948.88
2022-07-27T04:06:58.760Z,948.86
2022-07-27T04:09:25.142Z,948.92
2022-07-27T04:11:51.705Z,948.92
2022-07-27T04:14:17.895Z,948.89
2022-07-27T04:16:44.369Z,948.92
2022-07-27T04:19:10.922Z,948.92
2022-07-27T04:21:37.065Z,948.96
2022-07-27T04:24:03.449Z,948.96
2022-07-27T04:26:29.814Z,948.87
2022-07-27T04:28:56.183Z,948.90
2022-07-27T04:31:22.622Z,948.92
2022-07-27T04:33:48.930Z,948.97
2022-07-27T04:36:15.295Z,949.00
2022-07-27T04:38:41.683Z,949.06
2022-07-27T04:41:08.089Z,949.03
2022-07-27T04:43:34.456Z,949.08
2022-07-27T04:46:00.893Z,949.13
2022-07-27T04:48:27.228Z,949.18
2022-07-27T04:50:53.633Z,949.22
2022-07-27T04:53:20.015Z,949.29
2022-07-27T04:55:46.371Z,949.28
2022-07-27T04:58:12.782Z,949.37
2022-07-27T05:00:39.174Z,949.40
2022-07-27T05:03:05.606Z,949.38
2022-07-27T05:05:32.000Z,949.47
2022-07-27T05:07:58.399Z,949.42
2022-07-27T05:10:24.797Z,949.46
2022-07-27T05:12:51.176Z,949.45
2022-07-27T05:15:17.575Z,949.45
2022-07-27T05:17:43.905Z,949.51
2022-07-27T05:20:10.365Z,949.43
2022-07-27T05:22:39.876Z,949.47
2022-07-27T05:25:03.112Z,949.52
2022-07-27T05:27:29.526Z,949.51
2022-07-27T05:29:55.914Z,949.51
2022-07-27T05:32:22.285Z,949.48
2022-07-27T05:34:48.654Z,949.46
2022-07-27T05:37:15.039Z,949.48
2022-07-27T05:39:41.400Z,949.43
2022-07-27T05:42:07.788Z,949.45
2022-07-27T05:44:34.170Z,949.39
2022-07-27T05:47:00.563Z,949.44
2022-07-27T05:49:27.007Z,949.49
2022-07-27T05:51:53.336Z,949.44
2022-07-27T05:54:19.697Z,949.46
2022-07-27T05:56:46.072Z,949.50
2022-07-27T05:59:12.885Z,949.56
2022-07-27T06:01:38.921Z,949.48
2022-07-27T06:04:05.258Z,949.52
2022-07-27T06:06:31.579Z,949.53
2022-07-27T06:08:57.976Z,949.55
2022-07-27T06:11:24.367Z,949.56
2022-07-27T06:13:50.744Z,949.55
2022-07-27T06:16:17.177Z,949.51
2022-07-27T06:18:43.507Z,949.52
2022-07-27T06:21:09.916Z,949.53
2022-07-27T06:23:36.277Z,949.49
2022-07-27T06:26:02.689Z,949.48
2022-07-27T06:28:29.071Z,949.53
2022-07-27T06:30:55.477Z,949.56
2022-07-27T06:33:21.878Z,949.64
2022-07-27T06:35:48.279Z,949.61
2022-07-27T06:38:14.640Z,949.65
2022-07-27T06:40:41.056Z,949.58
2022-07-27T06:43:07.408Z,949.63
2022-07-27T06:45:33.826Z,949.61
2022-07-27T06:48:00.240Z,949.63
2022-07-27T06:50:26.655Z,949.59
2022-07-27T06:52:53.029Z,949.62
2022-07-27T06:55:19.395Z,949.61
2022-07-27T06:57:45.784Z,949.62
2022-07-27T07:00:12.214Z,949.53
2022-07-27T07:02:38.597Z,949.51
2022-07-27T07:05:05.007Z,949.51
2022-07-27T07:07:31.373Z,949.42
2022-07-27T07:09:57.768Z,949.49
2022-07-27T07:12:24.274Z,949.44
2022-07-27T07:14:50.666Z,949.45
2022-07-27T07:17:17.043Z,949.44
2022-07-27T07:19:43.444Z,949.45
2022-07-27T07:22:09.827Z,949.39
2022-07-27T07:24:36.213Z,949.41
2022-07-27T07:27:02.632Z,949.44
2022-07-27T07:29:29.008Z,949.42
2022-07-27T07:31:55.473Z,949.37
2022-07-27T07:34:21.781Z,949.40
2022-07-27T07:36:48.164Z,949.34
2022-07-27T07:39:15.185Z,949.33
2022-07-27T07:41:40.893Z,949.30
2022-07-27T07:44:07.271Z,949.26
2022-07-27T07:46:33.682Z,949.31
2022-07-27T07:49:00.046Z,949.32
2022-07-27T07:51:26.428Z,949.28
2022-07-27T07:53:52.837Z,949.21
2022-07-27T07:56:19.203Z,949.29
2022-07-27T07:58:45.574Z,949.32
2022-07-27T08:01:11.999Z,949.36
2022-07-27T08:03:38.355Z,949.36
2022-07-27T08:06:04.735Z,949.31
2022-07-27T08:08:31.162Z,949.32
2022-07-27T08:10:57.584Z,949.26
2022-07-27T08:13:23.923Z,949.25
2022-07-27T08:15:50.349Z,949.29
2022-07-27T08:18:16.713Z,949.31
2022-07-27T08:20:43.139Z,949.26
2022-07-27T08:23:09.540Z,949.31
2022-07-27T08:25:35.924Z,949.32
2022-07-27T08:28:02.867Z,949.28
2022-07-27T08:30:28.744Z,949.21
2022-07-27T08:32:55.267Z,949.20
2022-07-27T08:35:21.498Z,949.18
2022-07-27T08:37:47.888Z,949.12
2022-07-27T08:42:40.634Z,949.09
2022-07-27T08:45:07.090Z,949.10
2022-07-27T08:47:33.470Z,949.09
2022-07-27T08:49:59.888Z,949.06
2022-07-27T08:52:26.237Z,949.02
2022-07-27T08:54:52.596Z,948.99
2022-07-27T08:57:18.971Z,949.00
2022-07-27T08:59:45.358Z,948.98
2022-07-27T09:02:11.815Z,949.00
2022-07-27T09:04:38.130Z,948.97
2022-07-27T09:07:04.485Z,948.96
2022-07-27T09:09:30.919Z,948.90
2022-07-27T09:11:57.301Z,948.91
2022-07-27T09:14:23.666Z,948.83
2022-07-27T09:19:16.542Z,948.78
2022-07-27T09:21:42.794Z,948.87
2022-07-27T09:24:23.075Z,948.87
2022-07-27T09:26:35.630Z,948.87
2022-07-27T09:29:02.004Z,948.79
2022-07-27T09:31:28.452Z,948.80
2022-07-27T09:33:54.764Z,948.84
2022-07-27T09:36:21.161Z,948.80
2022-07-27T09:38:53.056Z,948.82
2022-07-27T09:41:13.923Z,948.79
2022-07-27T09:44:27.644Z,948.73
2022-07-27T09:46:06.788Z,948.69
2022-07-27T09:48:33.175Z,948.68
2022-07-27T09:51:02.798Z,948.66
2022-07-27T09:53:42.427Z,948.60
2022-07-27T09:55:57.110Z,948.65
2022-07-27T09:58:18.730Z,948.66
2022-07-27T10:00:45.117Z,948.64
2022-07-27T10:03:11.495Z,948.62
2022-07-27T10:05:37.881Z,948.56
2022-07-27T10:08:04.262Z,948.56
2022-07-27T10:10:30.631Z,948.59
2022-07-27T10:12:57.029Z,948.56
2022-07-27T10:15:23.427Z,948.53
2022-07-27T10:17:49.799Z,948.43
2022-07-27T10:20:16.191Z,948.44
2022-07-27T10:22:42.579Z,948.47
2022-07-27T10:25:08.956Z,948.41
2022-07-27T10:27:35.386Z,948.46
2022-07-27T10:30:01.761Z,948.42
2022-07-27T10:32:28.149Z,948.42
2022-07-27T10:34:54.519Z,948.41
2022-07-27T10:37:20.920Z,948.33
2022-07-27T10:39:47.286Z,948.33
2022-07-27T10:42:13.757Z,948.37
2022-07-27T10:44:40.174Z,948.36
2022-07-27T10:47:06.536Z,948.33
2022-07-27T10:49:33.016Z,948.21
2022-07-27T10:51:59.336Z,948.26
2022-07-27T10:54:26.056Z,948.24
2022-07-27T10:56:52.105Z,948.18
2022-07-27T10:59:18.499Z,948.16
2022-07-27T11:01:44.933Z,948.11
2022-07-27T11:04:11.651Z,948.10
2022-07-27T11:07:04.991Z,948.04
2022-07-27T11:09:53.363Z,948.00
2022-07-27T11:11:30.475Z,947.98
2022-07-27T11:13:56.847Z,947.98
2022-07-27T11:16:26.029Z,947.89
2022-07-27T11:18:53.006Z,947.87
2022-07-27T11:21:20.335Z,947.88
2022-07-27T11:23:50.961Z,947.89
2022-07-27T11:26:08.726Z,947.83
2022-07-27T11:28:35.109Z,947.90
2022-07-27T11:31:03.617Z,947.87
2022-07-27T11:33:27.873Z,947.84
2022-07-27T11:35:54.248Z,947.81
2022-07-27T11:38:20.642Z,947.78
2022-07-27T11:40:57.330Z,947.70
2022-07-27T11:43:14.572Z,947.66
2022-07-27T11:45:39.882Z,947.63
2022-07-27T11:48:06.214Z,947.70
2022-07-27T11:50:32.760Z,947.64
2022-07-27T11:53:01.815Z,947.56
2022-07-27T11:55:25.551Z,947.61
2022-07-27T11:57:51.973Z,947.62
2022-07-27T12:00:18.336Z,947.56
2022-07-27T12:02:44.814Z,947.58
2022-07-27T12:05:11.202Z,947.46
2022-07-27T12:07:37.522Z,947.56
2022-07-27T12:10:03.885Z,947.56
2022-07-27T12:12:30.258Z,947.48
2022-07-27T12:14:56.733Z,947.39
2022-07-27T12:17:23.046Z,947.36
2022-07-27T12:19:49.434Z,947.35
2022-07-27T12:22:15.824Z,947.37
2022-07-27T12:24:42.205Z,947.36
2022-07-27T12:27:08.577Z,947.34
2022-07-27T12:29:34.943Z,947.26
2022-07-27T12:32:01.331Z,947.33
2022-07-27T12:34:27.715Z,947.26
2022-07-27T12:36:54.084Z,947.22
2022-07-27T12:39:20.488Z,947.24
2022-07-27T12:41:46.864Z,947.22
2022-07-27T12:44:13.250Z,947.16
2022-07-27T12:46:39.634Z,947.06
2022-07-27T12:49:06.052Z,947.06
2022-07-27T12:51:32.397Z,946.99
2022-07-27T12:53:58.759Z,946.99
2022-07-27T12:56:27.358Z,946.95
2022-07-27T12:58:51.509Z,946.94
2022-07-27T13:01:17.928Z,946.89
2022-07-27T13:03:44.274Z,946.88
2022-07-27T13:06:13.044Z,946.89
2022-07-27T13:08:37.048Z,946.86
2022-07-27T13:11:03.442Z,946.84
2022-07-27T13:13:29.836Z,946.80
2022-07-27T13:15:56.225Z,946.73
2022-07-27T13:18:23.889Z,946.74
2022-07-27T13:20:48.971Z,946.78
2022-07-27T13:23:15.332Z,946.79
2022-07-27T13:25:43.490Z,946.63
2022-07-27T13:28:08.123Z,946.72
2022-07-27T13:30:34.497Z,946.72
2022-07-27T13:33:00.863Z,946.68
2022-07-27T13:35:27.286Z,946.59
2022-07-27T13:37:53.643Z,946.62
2022-07-27T13:40:20.038Z,946.53
2022-07-27T13:42:46.435Z,946.58
2022-07-27T13:45:12.828Z,946.46
2022-07-27T13:47:39.198Z,946.49
2022-07-27T13:50:05.597Z,946.49
2022-07-27T13:52:31.953Z,946.44
2022-07-27T13:54:58.353Z,946.45
2022-07-27T13:57:24.745Z,946.48
2022-07-27T13:59:51.142Z,946.43
2022-07-27T14:02:20.551Z,946.44
2022-07-27T14:04:43.904Z,946.39
2022-07-27T14:07:10.301Z,946.36
2022-07-27T14:09:36.664Z,946.33
2022-07-27T14:12:03.029Z,946.40
2022-07-27T14:14:29.399Z,946.39
2022-07-27T14:16:55.784Z,946.38
2022-07-27T14:19:22.193Z,946.38
2022-07-27T14:21:48.586Z,946.44
2022-07-27T14:24:14.973Z,946.50
2022-07-27T14:26:41.399Z,946.47
2022-07-27T14:29:07.751Z,946.49
2022-07-27T14:31:34.160Z,946.56
2022-07-27T14:34:00.506Z,946.58
2022-07-27T14:36:26.897Z,946.57
2022-07-27T14:38:53.311Z,946.59
2022-07-27T14:41:19.699Z,946.49
2022-07-27T14:43:46.061Z,946.63
2022-07-27T14:46:12.472Z,946.58
2022-07-27T14:49:07.165Z,946.54
2022-07-27T14:51:05.270Z,946.55
2022-07-27T14:53:31.605Z,946.46
2022-07-27T14:55:57.982Z,946.55
2022-07-27T14:58:24.344Z,946.62
2022-07-27T15:00:50.768Z,946.67
2022-07-27T15:03:17.308Z,946.64
2022-07-27T15:05:50.066Z,946.72
2022-07-27T15:08:10.051Z,946.82
2022-07-27T15:10:36.423Z,946.78
2022-07-27T15:13:02.811Z,946.80
2022-07-27T15:15:29.174Z,946.73
2022-07-27T15:17:55.563Z,946.76
2022-07-27T15:20:21.964Z,946.74
2022-07-27T15:22:48.346Z,946.76
2022-07-27T15:25:14.818Z,946.68
2022-07-27T15:27:41.201Z,946.67
2022-07-27T15:30:07.598Z,946.67
2022-07-27T15:32:33.984Z,946.70
2022-07-27T15:35:00.407Z,946.62
2022-07-27T15:37:26.771Z,946.70
2022-07-27T15:39:53.134Z,946.69
2022-07-27T15:42:19.516Z,946.73
2022-07-27T15:44:45.901Z,946.65
2022-07-27T15:47:12.346Z,946.66
2022-07-27T15:49:38.707Z,946.79
2022-07-27T15:52:05.060Z,946.73
2022-07-27T15:54:33.902Z,946.86
2022-07-27T15:56:57.853Z,946.86
2022-07-27T15:59:24.241Z,946.94
2022-07-27T16:01:50.662Z,946.90
2022-07-27T16:04:17.114Z,946.96
2022-07-27T16:06:43.409Z,946.98
2022-07-27T16:09:10.230Z,946.97
2022-07-27T16:11:36.198Z,946.95
2022-07-27T16:14:02.562Z,946.92
2022-07-27T16:16:29.051Z,947.00
2022-07-27T16:18:55.318Z,947.01
2022-07-27T16:21:21.680Z,947.03
2022-07-27T16:23:48.082Z,947.02
2022-07-27T16:26:14.462Z,947.05
2022-07-27T16:28:40.936Z,947.03
2022-07-27T16:31:07.400Z,947.09
2022-07-27T16:33:33.802Z,947.08
2022-07-27T16:36:00.171Z,947.02
2022-07-27T16:38:26.564Z,947.03
2022-07-27T16:40:52.939Z,947.02
2022-07-27T16:43:19.315Z,947.07
2022-07-27T16:45:45.707Z,947.08
2022-07-27T16:48:12.095Z,947.16
2022-07-27T16:50:38.477Z,947.22
2022-07-27T16:53:04.843Z,947.26
2022-07-27T16:55:31.264Z,947.36
2022-07-27T16:57:57.662Z,947.37
2022-07-27T17:00:24.035Z,947.36
2022-07-27T17:02:50.463Z,947.39
2022-07-27T17:05:16.841Z,947.46
2022-07-27T17:07:43.233Z,947.45
2022-07-27T17:10:09.609Z,947.49
2022-07-27T17:12:39.105Z,947.52
2022-07-27T17:15:02.345Z,947.47
2022-07-27T17:17:28.748Z,947.43
2022-07-27T17:19:55.119Z,947.44
2022-07-27T17:22:21.509Z,947.45
2022-07-27T17:24:47.877Z,947.43
2022-07-27T17:27:14.297Z,947.46
2022-07-27T17:29:40.665Z,947.49
2022-07-27T17:32:07.051Z,947.54
2022-07-27T17:34:33.439Z,947.49
2022-07-27T17:36:59.838Z,947.44
2022-07-27T17:39:26.220Z,947.46
2022-07-27T17:41:52.609Z,947.44
2022-07-27T17:44:18.968Z,947.46
2022-07-27T17:46:45.414Z,947.48
2022-07-27T17:49:12.118Z,947.52
2022-07-27T17:51:38.123Z,947.54
2022-07-27T17:54:04.537Z,947.56
2022-07-27T17:56:30.925Z,947.54
2022-07-27T17:59:09.303Z,947.57
2022-07-27T18:01:46.432Z,947.61
2022-07-27T18:03:50.154Z,947.67
2022-07-27T18:06:16.453Z,947.69
2022-07-27T18:08:42.838Z,947.70
2022-07-27T18:11:09.271Z,947.76
2022-07-27T18:13:39.410Z,947.73
2022-07-27T18:16:02.134Z,947.84
2022-07-27T18:18:28.415Z,947.92
2022-07-27T18:20:54.836Z,947.92
2022-07-27T18:23:21.199Z,947.97
2022-07-27T18:25:47.580Z,947.88
2022-07-27T18:28:13.975Z,947.96
2022-07-27T18:30:40.427Z,948.00
2022-07-27T18:33:06.750Z,948.01
2022-07-27T18:35:33.298Z,948.06
2022-07-27T18:37:59.679Z,948.08
2022-07-27T18:40:26.047Z,948.17
2022-07-27T18:42:52.480Z,948.15
2022-07-27T18:45:18.855Z,948.21
2022-07-27T18:47:49.345Z,948.38
2022-07-27T18:50:11.603Z,948.34
2022-07-27T18:52:38.010Z,948.45
2022-07-27T18:55:04.380Z,948.45
2022-07-27T18:57:30.753Z,948.49
2022-07-27T18:59:57.143Z,948.51
2022-07-27T19:02:23.652Z,948.56
2022-07-27T19:04:49.942Z,948.57
2022-07-27T19:07:16.319Z,948.54
2022-07-27T19:09:42.692Z,948.56
2022-07-27T19:12:09.801Z,948.50
2022-07-27T19:14:35.484Z,948.59
2022-07-27T19:17:01.957Z,948.56
2022-07-27T19:19:28.504Z,948.63
2022-07-27T19:21:54.699Z,948.71
2022-07-27T19:24:21.117Z,948.73
2022-07-27T19:26:47.478Z,948.81
2022-07-27T19:29:14.179Z,948.84
2022-07-27T19:31:40.280Z,948.76
2022-07-27T19:34:06.657Z,948.72
2022-07-27T19:36:33.078Z,948.67
2022-07-27T19:39:01.994Z,948.70
2022-07-27T19:41:25.813Z,948.64
2022-07-27T19:43:52.236Z,948.68
2022-07-27T19:46:18.636Z,948.69
2022-07-27T19:48:45.010Z,948.65
2022-07-27T19:51:11.355Z,948.69
2022-07-27T19:53:37.750Z,948.69
2022-07-27T19:56:04.135Z,948.64
2022-07-27T19:58:30.546Z,948.65
2022-07-27T20:00:56.998Z,948.62
2022-07-27T20:03:23.318Z,948.72
2022-07-27T20:05:49.714Z,948.76
2022-07-27T20:08:16.080Z,948.77
2022-07-27T20:10:42.479Z,948.78
2022-07-27T20:13:08.865Z,948.73
2022-07-27T20:15:35.226Z,948.71
2022-07-27T20:18:01.595Z,948.75
2022-07-27T20:20:27.977Z,948.75
2022-07-27T20:22:54.342Z,948.75
2022-07-27T20:25:20.712Z,948.79
2022-07-27T20:27:47.079Z,948.86
2022-07-27T20:30:13.448Z,948.87
2022-07-27T20:32:39.818Z,948.95
2022-07-27T21:19:14.790Z,949.19
2022-07-27T21:21:40.865Z,949.19
2022-07-27T21:24:07.248Z,949.25
2022-07-27T21:26:33.610Z,949.29
2022-07-27T21:28:59.993Z,949.36
2022-07-27T21:31:26.392Z,949.33
2022-07-27T21:33:52.832Z,949.40
2022-07-27T21:36:19.146Z,949.36
2022-07-27T21:38:45.547Z,949.39
2022-07-27T21:41:11.910Z,949.38
2022-07-27T21:43:38.297Z,949.38
2022-07-27T21:46:04.759Z,949.51
2022-07-27T21:48:31.049Z,949.57
2022-07-27T21:50:57.412Z,949.60
2022-07-27T21:53:23.828Z,949.67
2022-07-27T21:55:50.185Z,949.72
2022-07-27T21:58:16.554Z,949.73
2022-07-27T22:00:43.093Z,949.68
2022-07-27T22:03:09.458Z,949.77
2022-07-27T22:05:35.847Z,949.80
2022-07-27T22:08:02.220Z,949.90
2022-07-27T22:10:28.618Z,949.88
2022-07-27T22:12:54.978Z,949.87
2022-07-27T22:15:21.337Z,949.91
2022-07-27T22:17:50.449Z,949.86
2022-07-27T22:20:14.120Z,949.93
2022-07-27T22:22:40.551Z,949.96
2022-07-27T22:25:06.979Z,949.96
2022-07-27T22:27:33.365Z,949.99
2022-07-27T22:29:59.854Z,950.08
2022-07-27T22:32:26.329Z,950.05
2022-07-27T22:34:52.627Z,950.10
2022-07-27T22:37:19.155Z,950.08
2022-07-27T22:39:45.583Z,950.13
2022-07-27T22:42:12.010Z,950.12
2022-07-27T22:44:38.450Z,950.25
2022-07-27T22:47:04.817Z,950.25
2022-07-27T22:49:31.222Z,950.34
2022-07-27T22:51:57.640Z,950.34
2022-07-27T22:54:24.079Z,950.37
2022-07-27T22:56:50.515Z,950.41
2022-07-27T22:59:16.943Z,950.44
2022-07-27T23:01:46.360Z,950.42
2022-07-27T23:04:09.754Z,950.43
2022-07-27T23:06:36.083Z,950.44
2022-07-27T23:09:02.507Z,950.44
2022-07-27T23:11:28.906Z,950.52
2022-07-27T23:13:55.288Z,950.55
2022-07-27T23:16:21.704Z,950.66
2022-07-27T23:18:48.021Z,950.70
2022-07-27T23:21:14.418Z,950.72
2022-07-27T23:23:41.068Z,950.78
2022-07-27T23:26:07.174Z,950.83
2022-07-27T23:28:33.562Z,950.82
2022-07-27T23:31:00.034Z,950.82
2022-07-27T23:33:26.393Z,950.90
2022-07-27T23:35:52.769Z,951.00
2022-07-27T23:38:19.157Z,950.93
2022-07-27T23:40:45.555Z,950.99
2022-07-27T23:43:11.923Z,950.86
2022-07-27T23:45:38.366Z,950.83
2022-07-27T23:48:04.725Z,950.82
2022-07-27T23:50:31.119Z,950.79
2022-07-27T23:52:57.550Z,950.82
2022-07-27T23:55:23.921Z,950.81
2022-07-27T23:57:50.288Z,950.85
